createdAt,value
2022-11-23T00:00:49.347Z,94957.84
2022-11-23T00:03:17.123Z,94961.63
2022-11-23T00:05:44.877Z,94954.69
2022-11-23T00:08:15.076Z,94957.66
2022-11-23T00:10:42.968Z,94960.63
2022-11-23T00:13:10.772Z,94959.66
2022-11-23T00:15:42.159Z,94965.00
2022-11-23T00:18:09.892Z,94963.25
2022-11-23T00:20:40.515Z,94960.56
2022-11-23T00:23:08.293Z,94966.81
2022-11-23T00:25:37.455Z,94965.84
2022-11-23T00:28:05.613Z,94961.91
2022-11-23T00:30:35.972Z,94963.75
2022-11-23T00:33:06.032Z,94971.78
2022-11-23T00:35:33.899Z,94970.19
2022-11-23T00:38:02.566Z,94962.50
2022-11-23T00:40:30.320Z,94970.81
2022-11-23T00:43:02.167Z,94963.59
2022-11-23T00:45:30.169Z,94967.06
2022-11-23T00:47:59.024Z,94976.66
2022-11-23T00:50:27.924Z,94971.00
2022-11-23T00:52:57.831Z,94966.44
2022-11-23T00:55:25.607Z,94963.47
2022-11-23T00:57:53.403Z,94963.94
2022-11-23T01:00:23.095Z,94960.19
2022-11-23T01:02:50.871Z,94963.66
2022-11-23T01:05:22.191Z,94966.81
2022-11-23T01:07:50.572Z,94964.63
2022-11-23T01:10:18.376Z,94971.06
2022-11-23T01:12:46.419Z,94968.38
2022-11-23T01:15:15.359Z,94973.75
2022-11-23T01:17:45.871Z,94962.25
2022-11-23T01:20:13.653Z,94966.81
2022-11-23T01:22:42.930Z,94968.19
2022-11-23T01:25:13.738Z,94962.69
2022-11-23T01:27:41.492Z,94963.47
2022-11-23T01:30:11.800Z,94960.59
2022-11-23T01:32:42.075Z,94966.53
2022-11-23T01:35:11.417Z,94958.53
2022-11-23T01:37:39.189Z,94962.91
2022-11-23T01:40:10.519Z,94981.91
2022-11-23T01:42:51.296Z,94969.31
2022-11-23T01:45:40.039Z,94976.28
2022-11-23T01:48:14.911Z,94979.44
2022-11-23T01:50:45.629Z,94971.09
2022-11-23T01:53:13.731Z,94971.59
2022-11-23T01:55:44.095Z,94963.28
2022-11-23T01:58:15.779Z,94968.16
2022-11-23T02:00:47.000Z,94976.16
2022-11-23T02:03:18.734Z,94973.50
2022-11-23T02:05:50.279Z,94971.09
2022-11-23T02:08:21.180Z,94986.34
2022-11-23T02:10:51.871Z,94989.81
2022-11-23T02:13:19.812Z,94987.66
2022-11-23T02:15:47.594Z,94998.34
2022-11-23T02:18:24.483Z,94996.75
2022-11-23T02:20:54.852Z,94991.69
2022-11-23T02:23:38.913Z,94995.16
2022-11-23T02:26:11.235Z,94989.03
2022-11-23T02:28:44.902Z,94990.91
2022-11-23T02:31:12.772Z,94994.16
2022-11-23T02:33:41.398Z,94991.50
2022-11-23T02:36:42.370Z,94987.56
2022-11-23T02:39:13.872Z,94995.38
2022-11-23T02:41:45.269Z,94993.59
2022-11-23T02:44:33.438Z,94993.72
2022-11-23T02:47:01.386Z,94997.97
2022-11-23T02:49:29.579Z,95001.41
2022-11-23T02:51:57.787Z,94990.84
2022-11-23T02:54:27.215Z,95003.72
2022-11-23T02:56:56.903Z,95000.53
2022-11-23T02:59:24.867Z,94998.75
2022-11-23T03:01:54.091Z,95000.16
2022-11-23T03:04:27.314Z,94997.81
2022-11-23T03:06:55.522Z,95003.22
2022-11-23T03:09:23.935Z,95003.72
2022-11-23T03:11:51.788Z,94995.41
2022-11-23T03:14:21.086Z,94990.38
2022-11-23T03:16:54.598Z,95001.38
2022-11-23T03:19:23.822Z,94998.97
2022-11-23T03:21:52.706Z,94996.81
2022-11-23T03:24:22.020Z,95001.38
2022-11-23T03:26:52.973Z,95008.88
2022-11-23T03:29:26.319Z,94996.41
2022-11-23T03:31:55.352Z,94993.16
2022-11-23T03:34:24.218Z,95000.38
2022-11-23T03:36:52.493Z,95001.38
2022-11-23T03:39:21.915Z,94997.00
2022-11-23T03:42:12.888Z,94995.41
2022-11-23T03:44:43.370Z,94993.63
2022-11-23T03:47:12.030Z,94986.03
2022-11-23T03:49:39.838Z,94983.94
2022-11-23T03:52:09.233Z,94988.97
2022-11-23T03:54:36.988Z,94983.16
2022-11-23T03:57:05.109Z,94981.28
2022-11-23T03:59:36.346Z,94975.94
2022-11-23T04:02:05.980Z,94972.66
2022-11-23T04:04:38.235Z,94975.34
2022-11-23T04:07:10.565Z,94979.28
2022-11-23T04:09:50.413Z,94972.06
2022-11-23T04:12:29.543Z,94967.22
2022-11-23T04:14:57.354Z,94974.63
2022-11-23T04:17:27.106Z,94963.94
2022-11-23T04:19:57.343Z,94972.44
2022-11-23T04:22:25.282Z,94965.69
2022-11-23T04:24:56.448Z,94960.09
2022-11-23T04:27:24.207Z,94962.94
2022-11-23T04:29:52.108Z,94969.88
2022-11-23T04:32:20.568Z,94967.66
2022-11-23T04:34:52.369Z,94961.53
2022-11-23T04:37:20.245Z,94957.78
2022-11-23T04:39:48.223Z,94955.59
2022-11-23T04:42:21.171Z,94955.59
2022-11-23T04:45:02.498Z,94952.94
2022-11-23T04:47:31.354Z,94960.63
2022-11-23T04:50:06.154Z,94959.53
2022-11-23T04:52:34.749Z,94965.41
2022-11-23T04:55:19.544Z,94955.50
2022-11-23T04:57:55.893Z,94960.06
2022-11-23T05:00:26.239Z,94952.81
2022-11-23T05:03:01.410Z,94950.16
2022-11-23T05:05:37.789Z,94959.25
2022-11-23T05:08:05.947Z,94946.69
2022-11-23T05:11:06.261Z,94960.84
2022-11-23T05:13:34.256Z,94953.59
2022-11-23T05:16:03.021Z,94946.38
2022-11-23T05:18:32.252Z,94950.63
2022-11-23T05:21:01.373Z,94949.06
2022-11-23T05:23:31.917Z,94946.06
2022-11-23T05:26:07.957Z,94948.75
2022-11-23T05:28:40.567Z,94944.22
2022-11-23T05:31:11.467Z,94946.06
2022-11-23T05:33:39.361Z,94941.53
2022-11-23T05:36:15.147Z,94943.91
2022-11-23T05:38:43.535Z,94944.69
2022-11-23T05:41:16.563Z,94943.13
2022-11-23T05:43:47.317Z,94931.63
2022-11-23T05:46:23.618Z,94939.34
2022-11-23T05:48:51.351Z,94942.81
2022-11-23T05:51:20.510Z,94942.81
2022-11-23T05:53:50.545Z,94943.91
2022-11-23T05:56:34.658Z,94939.81
2022-11-23T05:59:09.599Z,94935.56
2022-11-23T06:01:40.443Z,94943.31
2022-11-23T06:04:10.307Z,94947.06
2022-11-23T06:06:43.886Z,94945.16
2022-11-23T06:09:11.938Z,94944.88
2022-11-23T06:11:45.030Z,94944.88
2022-11-23T06:14:17.643Z,94938.75
2022-11-23T06:16:47.259Z,94943.31
2022-11-23T06:19:42.206Z,94945.66
2022-11-23T06:22:11.453Z,94944.88
2022-11-23T06:24:45.781Z,94949.13
2022-11-23T06:27:33.755Z,94943.00
2022-11-23T06:30:08.547Z,94944.25
2022-11-23T06:32:37.911Z,94940.78
2022-11-23T06:35:06.127Z,94939.22
2022-11-23T06:37:38.340Z,94944.56
2022-11-23T06:40:10.151Z,94951.81
2022-11-23T06:42:39.820Z,94950.69
2022-11-23T06:45:17.259Z,94949.13
2022-11-23T06:47:47.192Z,94947.25
2022-11-23T06:50:17.390Z,94956.56
2022-11-23T06:52:56.499Z,94965.25
2022-11-23T06:55:33.365Z,94959.09
2022-11-23T06:58:01.292Z,94966.81
2022-11-23T07:00:31.570Z,94969.00
2022-11-23T07:03:00.449Z,94973.25
2022-11-23T07:05:33.694Z,94970.59
2022-11-23T07:08:03.066Z,94974.53
2022-11-23T07:10:33.267Z,94976.91
2022-11-23T07:13:06.126Z,94981.63
2022-11-23T07:15:34.739Z,94981.34
2022-11-23T07:18:05.058Z,94983.41
2022-11-23T07:20:33.939Z,94982.03
2022-11-23T07:23:05.399Z,94997.47
2022-11-23T07:25:35.028Z,94994.19
2022-11-23T07:28:08.146Z,94995.16
2022-11-23T07:30:38.079Z,95001.78
2022-11-23T07:33:14.166Z,95004.16
2022-11-23T07:35:45.468Z,95005.94
2022-11-23T07:38:16.279Z,95009.56
2022-11-23T07:40:44.378Z,95015.91
2022-11-23T07:43:26.935Z,95010.72
2022-11-23T07:45:58.551Z,95012.78
2022-11-23T07:48:26.340Z,95021.50
2022-11-23T07:50:56.006Z,95016.31
2022-11-23T07:53:25.204Z,95006.59
2022-11-23T07:55:56.755Z,95012.63
2022-11-23T07:58:25.760Z,95018.63
2022-11-23T08:00:53.923Z,95008.59
2022-11-23T08:03:30.099Z,95017.59
2022-11-23T08:05:58.782Z,95018.25
2022-11-23T08:08:30.396Z,95018.13
2022-11-23T08:10:58.127Z,95012.84
2022-11-23T08:13:25.978Z,95010.81
2022-11-23T08:15:55.808Z,95012.56
2022-11-23T08:18:24.612Z,95010.22
2022-11-23T08:20:54.992Z,95013.53
2022-11-23T08:23:27.827Z,95019.25
2022-11-23T08:25:57.210Z,95021.47
2022-11-23T08:28:26.496Z,95014.59
2022-11-23T08:30:55.346Z,95016.50
2022-11-23T08:33:25.486Z,95008.50
2022-11-23T08:35:55.572Z,95009.97
2022-11-23T08:38:23.358Z,95012.03
2022-11-23T08:40:53.255Z,95010.81
2022-11-23T08:43:23.959Z,95013.19
2022-11-23T08:46:02.204Z,95010.81
2022-11-23T08:48:34.629Z,95005.81
2022-11-23T08:51:02.420Z,95009.44
2022-11-23T08:53:30.207Z,95008.00
2022-11-23T08:56:01.519Z,95007.72
2022-11-23T08:58:30.815Z,95003.41
2022-11-23T09:00:58.680Z,95013.06
2022-11-23T09:03:26.463Z,95011.97
2022-11-23T09:05:54.658Z,95015.44
2022-11-23T09:08:23.754Z,95021.25
2022-11-23T09:10:53.670Z,95018.28
2022-11-23T09:13:21.581Z,95014.47
2022-11-23T09:15:50.646Z,95028.53
2022-11-23T09:18:19.378Z,95034.06
2022-11-23T09:20:47.090Z,95025.06
2022-11-23T09:23:14.851Z,95035.63
2022-11-23T09:25:43.286Z,95031.69
2022-11-23T09:28:12.675Z,95034.06
2022-11-23T09:30:40.496Z,95028.03
2022-11-23T09:33:10.682Z,95033.25
2022-11-23T09:35:43.623Z,95032.63
2022-11-23T09:38:13.148Z,95029.31
2022-11-23T09:40:44.506Z,95033.22
2022-11-23T09:43:35.198Z,95027.53
2022-11-23T09:46:14.344Z,95028.34
2022-11-23T09:48:58.744Z,95023.09
2022-11-23T09:51:27.335Z,95026.75
2022-11-23T09:54:00.154Z,95013.78
2022-11-23T09:56:31.170Z,95024.38
2022-11-23T09:59:02.411Z,95023.41
2022-11-23T10:01:31.630Z,95008.41
2022-11-23T10:04:01.154Z,95011.88
2022-11-23T10:06:32.574Z,95007.28
2022-11-23T10:09:13.778Z,95001.41
2022-11-23T10:12:09.886Z,95003.94
2022-11-23T10:14:50.875Z,94997.22
2022-11-23T10:17:30.730Z,94996.94
2022-11-23T10:20:20.770Z,94998.34
2022-11-23T10:22:58.418Z,94993.75
2022-11-23T10:25:36.092Z,94999.13
2022-11-23T10:28:15.086Z,94989.03
2022-11-23T10:30:43.497Z,94994.28
2022-11-23T10:33:23.552Z,94987.16
2022-11-23T10:35:52.621Z,94986.38
2022-11-23T10:38:22.297Z,94989.53
2022-11-23T10:41:01.976Z,94991.56
2022-11-23T10:43:34.724Z,94987.06
2022-11-23T10:46:26.538Z,94985.44
2022-11-23T10:48:55.006Z,94985.06
2022-11-23T10:51:30.989Z,94981.56
2022-11-23T10:54:05.131Z,94980.25
2022-11-23T10:56:34.149Z,94971.88
2022-11-23T10:59:02.444Z,94973.78
2022-11-23T11:01:31.268Z,94984.97
2022-11-23T11:04:05.326Z,94979.75
2022-11-23T11:06:40.574Z,94982.38
2022-11-23T11:09:20.901Z,94982.13
2022-11-23T11:11:54.746Z,94974.78
2022-11-23T11:14:23.792Z,94979.00
2022-11-23T11:16:55.389Z,94980.69
2022-11-23T11:19:30.520Z,94968.06
2022-11-23T11:22:01.241Z,94966.28
2022-11-23T11:24:34.389Z,94963.31
2022-11-23T11:27:07.190Z,94969.16
2022-11-23T11:29:47.678Z,94963.47
2022-11-23T11:32:22.085Z,94956.31
2022-11-23T11:34:56.279Z,94967.78
2022-11-23T11:37:33.578Z,94954.09
2022-11-23T11:40:11.086Z,94964.53
2022-11-23T11:42:42.828Z,94950.97
2022-11-23T11:45:22.614Z,94947.63
2022-11-23T11:47:58.504Z,94953.47
2022-11-23T11:50:31.681Z,94958.41
2022-11-23T11:53:07.213Z,94955.25
2022-11-23T11:55:49.505Z,94953.81
2022-11-23T11:58:18.864Z,94952.81
2022-11-23T12:00:49.867Z,94944.06
2022-11-23T12:03:24.074Z,94938.44
2022-11-23T12:05:55.069Z,94940.69
2022-11-23T12:08:34.222Z,94934.97
2022-11-23T12:11:05.765Z,94935.31
2022-11-23T12:13:35.198Z,94937.00
2022-11-23T12:16:18.738Z,94934.19
2022-11-23T12:19:08.090Z,94939.13
2022-11-23T12:22:12.095Z,94936.44
2022-11-23T12:24:58.806Z,94933.88
2022-11-23T12:27:35.880Z,94931.50
2022-11-23T12:30:26.155Z,94914.31
2022-11-23T12:33:20.439Z,94919.47
2022-11-23T12:36:08.338Z,94922.50
2022-11-23T12:38:48.141Z,94925.06
2022-11-23T12:41:29.378Z,94921.28
2022-11-23T12:44:31.439Z,94920.47
2022-11-23T12:47:08.513Z,94917.31
2022-11-23T12:49:42.775Z,94916.97
2022-11-23T12:52:29.482Z,94916.66
2022-11-23T12:55:19.438Z,94928.56
2022-11-23T12:58:01.823Z,94922.94
2022-11-23T13:00:35.825Z,94912.63
2022-11-23T13:03:41.872Z,94909.72
2022-11-23T13:06:40.002Z,94913.19
2022-11-23T13:09:25.221Z,94906.53
2022-11-23T13:12:14.771Z,94914.97
2022-11-23T13:14:55.961Z,94910.38
2022-11-23T13:17:36.186Z,94912.06
2022-11-23T13:20:41.890Z,94912.84
2022-11-23T13:23:10.272Z,94908.69
2022-11-23T13:25:38.166Z,94910.69
2022-11-23T13:28:09.394Z,94909.78
2022-11-23T13:33:38.644Z,94899.78
2022-11-23T13:36:16.647Z,94893.03
2022-11-23T13:38:47.396Z,94893.78
2022-11-23T13:41:54.959Z,94897.84
2022-11-23T13:44:26.157Z,94894.06
2022-11-23T13:47:22.485Z,94894.28
2022-11-23T13:49:51.820Z,94893.06
2022-11-23T13:52:29.054Z,94897.19
2022-11-23T13:55:07.356Z,94902.00
2022-11-23T13:57:38.906Z,94899.53
2022-11-23T14:00:44.926Z,94897.03
2022-11-23T14:03:50.208Z,94888.25
2022-11-23T14:06:26.979Z,94889.25
2022-11-23T14:09:08.636Z,94891.81
2022-11-23T14:11:43.274Z,94890.53
2022-11-23T14:14:24.377Z,94888.88
2022-11-23T14:17:12.377Z,94887.47
2022-11-23T14:19:55.154Z,94892.72
2022-11-23T14:22:37.376Z,94894.53
2022-11-23T14:25:24.458Z,94893.28
2022-11-23T14:28:06.178Z,94899.63
2022-11-23T14:30:46.421Z,94893.34
2022-11-23T14:33:33.971Z,94895.09
2022-11-23T14:36:13.947Z,94896.41
2022-11-23T14:39:10.992Z,94893.94
2022-11-23T14:41:42.232Z,94900.63
2022-11-23T14:44:16.849Z,94892.41
2022-11-23T14:47:02.862Z,94903.34
2022-11-23T14:49:32.075Z,94903.22
2022-11-23T14:52:05.100Z,94900.72
2022-11-23T14:54:34.171Z,94901.69
2022-11-23T14:57:07.106Z,94899.97
2022-11-23T14:59:39.860Z,94897.34
2022-11-23T15:02:20.150Z,94895.63
2022-11-23T15:05:04.138Z,94888.88
2022-11-23T15:07:47.523Z,94889.06
2022-11-23T15:10:42.198Z,94881.47
2022-11-23T15:13:23.208Z,94875.06
2022-11-23T15:15:57.475Z,94881.69
2022-11-23T15:18:32.766Z,94885.19
2022-11-23T15:21:03.430Z,94878.63
2022-11-23T15:23:38.317Z,94885.75
2022-11-23T15:26:34.561Z,94883.78
2022-11-23T15:29:03.741Z,94880.34
2022-11-23T15:31:37.966Z,94884.72
2022-11-23T15:34:14.599Z,94877.63
2022-11-23T15:36:44.317Z,94875.44
2022-11-23T15:39:23.857Z,94874.16
2022-11-23T15:41:53.405Z,94885.53
2022-11-23T15:44:25.965Z,94885.97
2022-11-23T15:47:00.058Z,94887.03
2022-11-23T15:49:28.428Z,94890.19
2022-11-23T15:52:05.771Z,94894.78
2022-11-23T15:54:36.984Z,94895.03
2022-11-23T15:57:12.403Z,94890.44
2022-11-23T15:59:44.059Z,94898.41
2022-11-23T16:02:20.735Z,94892.25
2022-11-23T16:04:48.568Z,94886.06
2022-11-23T16:07:20.017Z,94885.09
2022-11-23T16:09:53.600Z,94887.28
2022-11-23T16:12:26.660Z,94887.75
2022-11-23T16:14:59.356Z,94888.56
2022-11-23T16:17:29.014Z,94879.56
2022-11-23T16:19:58.679Z,94882.38
2022-11-23T16:22:34.299Z,94885.38
2022-11-23T16:25:07.839Z,94888.16
2022-11-23T16:27:38.172Z,94904.28
2022-11-23T16:30:09.329Z,94890.81
2022-11-23T16:32:37.716Z,94897.25
2022-11-23T16:35:19.349Z,94897.56
2022-11-23T16:37:48.486Z,94899.75
2022-11-23T16:40:19.951Z,94897.63
2022-11-23T16:42:53.453Z,94895.19
2022-11-23T16:45:23.348Z,94900.28
2022-11-23T16:47:53.901Z,94895.84
2022-11-23T16:50:24.333Z,94891.59
2022-11-23T16:52:52.934Z,94895.47
2022-11-23T16:55:24.674Z,94897.47
2022-11-23T16:57:52.438Z,94894.91
2022-11-23T17:00:23.397Z,94898.00
2022-11-23T17:02:51.302Z,94886.91
2022-11-23T17:05:21.261Z,94885.34
2022-11-23T17:07:50.916Z,94900.28
2022-11-23T17:10:18.801Z,94900.28
2022-11-23T17:12:52.651Z,94907.31
2022-11-23T17:15:22.516Z,94895.84
2022-11-23T17:17:50.673Z,94890.81
2022-11-23T17:20:20.441Z,94905.25
2022-11-23T17:22:51.680Z,94901.88
2022-11-23T17:25:21.889Z,94902.97
2022-11-23T17:27:52.874Z,94912.97
2022-11-23T17:30:22.562Z,94908.63
2022-11-23T17:32:53.962Z,94910.78
2022-11-23T17:35:25.490Z,94912.38
2022-11-23T17:37:53.603Z,94922.44
2022-11-23T17:40:25.863Z,94927.63
2022-11-23T17:42:54.972Z,94934.44
2022-11-23T17:45:23.088Z,94930.34
2022-11-23T17:47:51.048Z,94939.34
2022-11-23T17:50:20.246Z,94932.44
2022-11-23T17:52:48.690Z,94940.84
2022-11-23T17:55:17.360Z,94944.91
2022-11-23T17:57:45.143Z,94947.66
2022-11-23T18:00:20.957Z,94946.25
2022-11-23T18:02:52.788Z,94953.09
2022-11-23T18:05:22.104Z,94961.59
2022-11-23T18:07:51.056Z,94962.38
2022-11-23T18:10:19.633Z,94976.22
2022-11-23T18:12:48.075Z,94984.03
2022-11-23T18:15:18.593Z,94991.03
2022-11-23T18:17:46.692Z,94995.00
2022-11-23T18:20:15.542Z,95004.59
2022-11-23T18:22:43.301Z,95010.44
2022-11-23T18:25:12.270Z,95013.97
2022-11-23T18:27:44.560Z,95024.97
2022-11-23T18:30:13.428Z,95027.41
2022-11-23T18:32:45.050Z,95036.31
2022-11-23T18:35:14.851Z,95030.97
2022-11-23T18:37:44.630Z,95047.22
2022-11-23T18:40:15.216Z,95054.31
2022-11-23T18:42:43.039Z,95062.31
2022-11-23T18:45:11.338Z,95059.50
2022-11-23T18:47:39.951Z,95074.09
2022-11-23T18:50:09.709Z,95085.84
2022-11-23T18:52:38.814Z,95085.91
2022-11-23T18:55:07.487Z,95096.97
2022-11-23T18:57:35.386Z,95093.56
2022-11-23T19:00:05.878Z,95101.97
2022-11-23T19:02:34.216Z,95108.91
2022-11-23T19:05:01.948Z,95109.75
2022-11-23T19:07:31.135Z,95114.00
2022-11-23T19:09:58.891Z,95128.50
2022-11-23T19:12:26.622Z,95132.03
2022-11-23T19:14:54.336Z,95136.41
2022-11-23T19:17:22.032Z,95127.28
2022-11-23T19:19:49.897Z,95128.00
2022-11-23T19:22:17.643Z,95133.25
2022-11-23T19:24:46.744Z,95145.53
2022-11-23T19:27:14.534Z,95154.19
2022-11-23T19:29:42.346Z,95151.16
2022-11-23T19:32:10.082Z,95149.06
2022-11-23T19:34:40.295Z,95167.81
2022-11-23T19:37:08.072Z,95179.44
2022-11-23T19:39:36.194Z,95172.00
2022-11-23T19:42:06.766Z,95175.78
2022-11-23T19:44:34.515Z,95176.56
2022-11-23T19:47:05.192Z,95177.78
2022-11-23T19:49:37.158Z,95185.50
2022-11-23T19:52:06.287Z,95191.47
2022-11-23T19:54:34.105Z,95190.84
2022-11-23T19:57:03.817Z,95203.44
2022-11-23T19:59:37.748Z,95194.44
2022-11-23T20:02:07.911Z,95204.16
2022-11-23T20:04:35.840Z,95216.56
2022-11-23T20:07:03.600Z,95217.38
2022-11-23T20:09:36.051Z,95216.88
2022-11-23T20:12:08.754Z,95228.97
2022-11-23T20:14:43.943Z,95222.13
2022-11-23T20:17:12.423Z,95223.53
2022-11-23T20:19:40.274Z,95220.06
2022-11-23T20:22:08.943Z,95218.66
2022-11-23T20:24:36.848Z,95213.91
2022-11-23T20:27:04.768Z,95213.00
2022-11-23T20:29:32.893Z,95212.31
2022-11-23T20:32:02.245Z,95217.47
2022-11-23T20:34:30.020Z,95228.78
2022-11-23T20:37:00.140Z,95225.13
2022-11-23T20:39:27.930Z,95225.63
2022-11-23T20:41:55.676Z,95238.28
2022-11-23T20:44:30.755Z,95234.16
2022-11-23T20:47:04.444Z,95234.63
2022-11-23T20:49:33.338Z,95237.03
2022-11-23T20:52:01.703Z,95237.09
2022-11-23T20:54:29.503Z,95246.91
2022-11-23T20:57:00.776Z,95240.28
2022-11-23T20:59:28.751Z,95244.16
2022-11-23T21:01:56.695Z,95249.78
2022-11-23T21:04:33.869Z,95250.78
2022-11-23T21:07:02.273Z,95252.56
2022-11-23T21:09:30.046Z,95256.91
2022-11-23T21:12:15.203Z,95256.91
2022-11-23T21:14:43.007Z,95258.81
2022-11-23T21:17:10.830Z,95259.69
2022-11-23T21:19:40.765Z,95264.56
2022-11-23T21:22:10.499Z,95269.59
2022-11-23T21:24:38.688Z,95267.34
2022-11-23T21:27:08.067Z,95268.59
2022-11-23T21:29:35.911Z,95270.38
2022-11-23T21:32:03.707Z,95278.22
2022-11-23T21:34:32.481Z,95282.38
2022-11-23T21:37:02.053Z,95274.25
2022-11-23T21:39:31.803Z,95282.25
2022-11-23T21:41:59.901Z,95287.69
2022-11-23T21:44:27.700Z,95281.41
2022-11-23T21:46:55.713Z,95285.56
2022-11-23T21:49:23.484Z,95293.97
2022-11-23T21:51:51.252Z,95294.34
2022-11-23T21:54:20.329Z,95290.28
2022-11-23T21:56:48.470Z,95303.75
2022-11-23T21:59:16.200Z,95296.56
2022-11-23T22:01:44.164Z,95313.63
2022-11-23T22:04:13.482Z,95305.47
2022-11-23T22:06:44.234Z,95314.97
2022-11-23T22:09:13.077Z,95326.66
2022-11-23T22:11:44.075Z,95330.44
2022-11-23T22:14:13.923Z,95322.91
2022-11-23T22:16:43.015Z,95326.25
2022-11-23T22:19:12.315Z,95333.72
2022-11-23T22:21:41.313Z,95337.38
2022-11-23T22:24:12.629Z,95335.22
2022-11-23T22:26:40.345Z,95341.50
2022-11-23T22:29:10.536Z,95340.84
2022-11-23T22:31:38.820Z,95341.84
2022-11-23T22:34:09.747Z,95357.34
2022-11-23T22:36:37.520Z,95362.38
2022-11-23T22:39:07.049Z,95367.16
2022-11-23T22:41:37.060Z,95380.78
2022-11-23T22:44:06.943Z,95377.47
2022-11-23T22:46:36.315Z,95374.78
2022-11-23T22:49:04.458Z,95389.00
2022-11-23T22:51:32.181Z,95387.28
2022-11-23T22:54:01.431Z,95398.00
2022-11-23T22:56:30.583Z,95399.59
2022-11-23T22:58:58.490Z,95399.00
2022-11-23T23:01:28.012Z,95402.00
2022-11-23T23:03:58.647Z,95395.03
2022-11-23T23:06:28.341Z,95406.56
2022-11-23T23:08:57.309Z,95405.78
2022-11-23T23:11:26.053Z,95418.88
2022-11-23T23:13:54.170Z,95418.88
2022-11-23T23:16:22.428Z,95425.84
2022-11-23T23:18:51.393Z,95425.34
2022-11-23T23:21:22.415Z,95429.63
2022-11-23T23:23:51.581Z,95432.78
2022-11-23T23:26:20.845Z,95441.47
2022-11-23T23:28:49.193Z,95435.31
2022-11-23T23:31:18.491Z,95448.41
2022-11-23T23:33:46.906Z,95443.81
2022-11-23T23:36:16.158Z,95446.63
2022-11-23T23:38:45.574Z,95452.97
2022-11-23T23:41:14.328Z,95460.25
2022-11-23T23:43:42.754Z,95469.38
2022-11-23T23:46:12.820Z,95467.78
2022-11-23T23:48:41.736Z,95481.09
2022-11-23T23:51:11.518Z,95477.31
2022-11-23T23:53:40.017Z,95490.25
2022-11-23T23:56:14.434Z,95490.84
2022-11-23T23:58:42.393Z,95498.28
